createdAt,value
2022-08-22T00:01:10.804Z,16.4
2022-08-22T00:21:14.225Z,15.4
2022-08-22T00:31:16.059Z,15.2
2022-08-22T00:41:17.792Z,15.2
2022-08-22T00:51:19.620Z,15.2
2022-08-22T01:01:22.213Z,14.9
2022-08-22T01:21:26.318Z,14.4
2022-08-22T01:41:30.661Z,14.1
2022-08-22T02:41:43.278Z,13.6
2022-08-22T03:11:48.894Z,13.2
2022-08-22T03:41:55.309Z,13
2022-08-22T04:12:01.874Z,12.8
2022-08-22T04:32:05.553Z,12.7
2022-08-22T04:52:09.786Z,12.8
2022-08-22T05:32:18.599Z,13.8
2022-08-22T06:12:27.931Z,15.6
2022-08-22T06:22:30.372Z,16.1
2022-08-22T06:32:52.854Z,16.5
2022-08-22T06:42:35.544Z,16.8
2022-08-22T06:52:37.707Z,17.2
2022-08-22T07:02:39.560Z,17.1
2022-08-22T07:12:42.153Z,17.1
2022-08-22T07:22:44.576Z,17.2
2022-08-22T07:32:46.999Z,17.3
2022-08-22T07:42:49.137Z,17.8
2022-08-22T07:52:51.463Z,18.4
2022-08-22T08:02:53.229Z,19.1
2022-08-22T08:13:01.785Z,19.3
2022-08-22T08:22:57.402Z,20.1
2022-08-22T08:33:24.093Z,20.6
2022-08-22T08:53:03.989Z,21.7
2022-08-22T09:03:06.364Z,22
2022-08-22T09:13:11.405Z,22.4
2022-08-22T09:23:10.162Z,22.9
2022-08-22T09:33:11.907Z,22.8
2022-08-22T09:43:14.241Z,23.1
2022-08-22T09:53:16.106Z,23.6
2022-08-22T10:03:18.311Z,24.5
2022-08-22T10:13:20.337Z,24.2
2022-08-22T10:23:22.237Z,25.2
2022-08-22T10:53:29.478Z,25.3
2022-08-22T11:03:30.660Z,27.1
2022-08-22T11:13:33.284Z,27
2022-08-22T11:23:35.279Z,26.5
2022-08-22T11:43:39.591Z,27
2022-08-22T11:53:41.654Z,26.2
2022-08-22T12:13:45.617Z,25.9
2022-08-22T12:33:50.338Z,26.1
2022-08-22T12:43:52.136Z,26.1
2022-08-22T12:53:53.738Z,26.3
2022-08-22T13:03:56.145Z,26.1
2022-08-22T13:13:58.354Z,26.3
2022-08-22T13:24:10.405Z,26.4
2022-08-22T13:34:01.882Z,26.2
2022-08-22T13:44:04.395Z,26.6
2022-08-22T13:54:10.975Z,26.3
2022-08-22T14:04:17.664Z,26.5
2022-08-22T14:14:11.573Z,26.6
2022-08-22T14:14:19.836Z,26.6
2022-08-22T14:24:25.579Z,26.5
2022-08-22T14:34:23.254Z,26.6
2022-08-22T14:44:25.575Z,26.5
2022-08-22T14:54:29.033Z,26.7
2022-08-22T15:04:30.349Z,27
2022-08-22T15:14:32.463Z,26.6
2022-08-22T15:24:34.702Z,26.5
2022-08-22T15:34:37.275Z,26.6
2022-08-22T15:44:39.095Z,26.7
2022-08-22T15:54:44.173Z,26.7
2022-08-22T16:04:43.559Z,26.6
2022-08-22T16:14:45.664Z,26.3
2022-08-22T16:24:47.643Z,25.9
2022-08-22T16:34:49.632Z,26
2022-08-22T16:54:53.614Z,26.3
2022-08-22T17:14:57.026Z,26.3
2022-08-22T17:35:01.107Z,25.8
2022-08-22T17:55:04.826Z,24.9
2022-08-22T18:15:09.874Z,24.4
2022-08-22T18:25:12.006Z,23.5
2022-08-22T18:35:13.937Z,23.1
2022-08-22T18:45:15.864Z,23.3
2022-08-22T19:05:20.307Z,23.2
2022-08-22T19:15:21.995Z,22.8
2022-08-22T19:25:24.175Z,22.2
2022-08-22T19:35:26.606Z,21.8
2022-08-22T19:45:29.430Z,21.5
2022-08-22T20:55:42.932Z,20.6
2022-08-22T21:25:49.414Z,20
2022-08-22T21:35:51.626Z,19.8
2022-08-22T21:45:53.694Z,19.6
2022-08-22T21:55:55.831Z,19.3
2022-08-22T22:16:00.156Z,19
2022-08-22T22:26:02.548Z,18.7
2022-08-22T22:36:04.960Z,18.6
2022-08-22T22:46:06.650Z,18.5
2022-08-22T22:56:09.192Z,18.4
2022-08-22T23:06:10.890Z,18.4
2022-08-22T23:16:12.516Z,18.2
2022-08-22T23:26:14.468Z,18
2022-08-22T23:36:16.175Z,17.8
2022-08-22T23:46:17.902Z,17.6
2022-08-22T23:56:20.163Z,17.4
